Arrowhead, Minnesota
Current Conditions -  °F | °C
As of 11:36 PM on Tuesday 25 Nov 2014 (Local Time) from KCOQ Reporting Station
Overcast Overcast  
Wind Chill: 18°   Ceiling: 2100
Heat Index: 18°   Visibility: 10mi
Dew Point: 12°   Wind: 0mph
Humidity: 79%   Direction: NA
Pressure: 30.05"   Gusts: NA
Location:  46.8211°N, 92.6871°W
Report Text: KCOQ 260536Z AUTO 00000KT 10SM BKN021 OVC031 M08/M11 A3005 RMK AO2
Loading
Personal Weather Stations






























Interactive Weather Map New forecast layout! Learn more

10-Day Weather Forecast

Advertisements
Track Severe Weather on mobile